Hickory Regional Airport
KHKY : rendu visible

Aérodrome :











RETROUVEZ-NOUS SUR...

 
LOGIN :

S'inscrire | Disclaimer

   EN    FR    IT 

 









Légende :    VFR   VFR Marginal   IFR   IFR Intensif   IFR Très Intensif
Visi : 
Plafond : 
>= 8 km
>= 3000ft
5 à 8 km
1000 à 3000 ft
1500m à 5 km
500 à 1000 ft
800 à 1500m
200 à 500 ft
< 800m
< 200 ft
Symboles :   Orages  Brouillard  Fortes neiges  Fortes précipitations  Vent > 20 kt






- Altitude de l'aérodrome : 1190 ft
- Code IATA : HKY


KHKY - Hickory Regional

DERNIER METAR :
  • 292053Z VRB04KT 10SM OVC100 09/M01 A3001 RMK AO2 SLP158 T00891006 55008

METARs EXPIRÉS :
  • 291953Z 00000KT 10SM FEW100 09/M01 A3001 RMK AO2 SLP156 T00891006
  • 291853Z 23003KT 10SM FEW100 08/00 A3001 RMK AO2 SLP157 T00830000
  • 291753Z 00000KT 10SM BKN100 07/M01 A3004 RMK AO2 SLP167 T00671006 10072 21017 58021

TAF KHKY
Valide du 29 à 18h jusqu'au 30 à 18h UTC


291747Z 2918/3018 06004KT P6SM BKN100
FM300100 VRB03KT P6SM VCSH BKN050
FM300500 VRB03KT P6SM BKN020
PROB30 3005/3009 4SM -RA BR OVC015
FM301600 VRB04KT P6SM BKN022



MET'MAP, la Météo Aéronautique d'un coup d'oeil ! - Copyright ORBIFLY Décembre 2007 - Disclaimer

ORBIFLY MET'MAP TEAM :

Programmation & Développement : Alexandra Zaïnal
Sur une idée originale de : Baudouin d'Aumeries
Assistance à la programmation : Marc-Olivier Méhu
Soutien technique & logistique : Manuel Goepfert

Contact : metmap@orbifly.com




SOURCES & CREDITS :

   NOAA       Earth
Advisory